Terminal Aerodrome Forecast
Issued by NWS

Home | Current Version | Previous Version | Text Only | Print | Product List | Glossary On
Versions: 1 2 3 4 5 6 7 8 9 10 11
000
FTUS41 KBTV 221133
TAFPBG
TAF
KPBG 221133Z 2212/2312 18004KT P6SM BKN035
      TEMPO 2212/2215 BKN028
     FM230000 17004KT 4SM BR BKN018
     FM230600 14008KT 2SM BR OVC015=

USA.gov is the U.S. government's official web portal to all federal, state and local government web resources and services.